createdAt,value
2018-01-14T00:00:39.135Z,11.93
2018-01-14T00:03:06.567Z,12.57
2018-01-14T00:05:34.011Z,13.90
2018-01-14T00:08:01.495Z,14.10
2018-01-14T00:10:28.960Z,13.62
2018-01-14T00:12:56.432Z,13.93
2018-01-14T00:15:23.892Z,12.23
2018-01-14T00:17:51.312Z,13.43
2018-01-14T00:20:18.815Z,12.87
2018-01-14T00:22:46.295Z,13.33
2018-01-14T00:25:13.735Z,14.30
2018-01-14T00:27:41.224Z,13.10
2018-01-14T00:30:08.628Z,13.53
2018-01-14T00:32:36.096Z,12.93
2018-01-14T00:35:03.523Z,14.37
2018-01-14T00:37:30.988Z,14.27
2018-01-14T00:39:58.384Z,13.87
2018-01-14T00:42:25.838Z,13.80
2018-01-14T00:44:53.259Z,13.73
2018-01-14T00:47:20.741Z,13.50
2018-01-14T00:49:48.165Z,13.30
2018-01-14T00:52:15.698Z,12.93
2018-01-14T00:54:43.176Z,12.73
2018-01-14T00:57:10.613Z,11.50
2018-01-14T00:59:38.044Z,12.50
2018-01-14T01:02:05.482Z,13.60
2018-01-14T01:04:32.910Z,12.70
2018-01-14T01:07:00.329Z,14.07
2018-01-14T01:09:28.639Z,13.37
2018-01-14T01:11:56.059Z,12.87
2018-01-14T01:14:23.502Z,13.20
2018-01-14T01:16:50.936Z,14.57
2018-01-14T01:19:18.386Z,13.40
2018-01-14T01:21:45.817Z,13.10
2018-01-14T01:24:13.271Z,13.70
2018-01-14T01:26:40.677Z,13.60
2018-01-14T01:29:08.115Z,13.50
2018-01-14T01:31:35.576Z,13.23
2018-01-14T01:34:02.984Z,15.43
2018-01-14T01:36:30.435Z,13.85
2018-01-14T01:38:57.837Z,13.63
2018-01-14T01:41:25.291Z,12.93
2018-01-14T01:43:52.696Z,13.97
2018-01-14T01:46:20.626Z,12.52
2018-01-14T01:48:48.042Z,12.90
2018-01-14T01:51:15.507Z,12.90
2018-01-14T01:53:42.985Z,13.60
2018-01-14T01:56:10.398Z,13.43
2018-01-14T01:58:37.891Z,13.13
2018-01-14T02:01:05.301Z,14.40
2018-01-14T02:03:32.779Z,15.13
2018-01-14T02:06:00.197Z,15.13
2018-01-14T02:08:27.663Z,14.20
2018-01-14T02:10:55.128Z,13.97
2018-01-14T02:13:22.583Z,13.60
2018-01-14T02:15:50.009Z,15.03
2018-01-14T02:18:17.447Z,14.00
2018-01-14T02:20:44.870Z,15.57
2018-01-14T02:23:12.308Z,14.93
2018-01-14T02:25:39.726Z,14.98
2018-01-14T02:28:07.167Z,14.17
2018-01-14T02:30:34.670Z,14.23
2018-01-14T02:33:02.096Z,15.17
2018-01-14T02:35:29.536Z,16.23
2018-01-14T02:37:57.040Z,16.03
2018-01-14T02:40:24.485Z,15.60
2018-01-14T02:42:51.916Z,14.77
2018-01-14T02:45:19.373Z,16.57
2018-01-14T02:47:46.827Z,16.47
2018-01-14T02:50:14.249Z,16.20
2018-01-14T02:52:41.684Z,15.10
2018-01-14T02:55:09.133Z,17.70
2018-01-14T02:57:36.578Z,17.40
2018-01-14T03:00:03.987Z,17.80
2018-01-14T03:02:31.417Z,17.43
2018-01-14T03:04:58.851Z,18.53
2018-01-14T03:07:26.295Z,19.30
2018-01-14T03:09:53.709Z,19.50
2018-01-14T03:12:21.144Z,19.07
2018-01-14T03:14:48.565Z,19.17
2018-01-14T03:17:16.013Z,18.80
2018-01-14T03:19:43.463Z,20.97
2018-01-14T03:22:10.920Z,20.70
2018-01-14T03:24:38.333Z,18.30
2018-01-14T03:27:05.773Z,20.33
2018-01-14T03:29:33.259Z,19.40
2018-01-14T03:32:00.686Z,21.53
2018-01-14T03:34:28.101Z,22.17
2018-01-14T03:36:55.544Z,20.57
2018-01-14T03:39:22.985Z,21.50
2018-01-14T03:41:50.429Z,20.37
2018-01-14T03:44:17.869Z,19.93
2018-01-14T03:46:45.400Z,20.80
2018-01-14T03:49:12.809Z,21.30
2018-01-14T03:51:40.239Z,21.50
2018-01-14T03:54:07.694Z,23.30
2018-01-14T03:56:35.116Z,20.93
2018-01-14T03:59:02.521Z,21.63
2018-01-14T04:01:29.987Z,21.70
2018-01-14T04:03:57.418Z,21.27
2018-01-14T04:06:24.857Z,23.40
2018-01-14T04:08:52.260Z,21.20
2018-01-14T04:11:19.718Z,22.60
2018-01-14T04:13:47.148Z,20.77
2018-01-14T04:16:14.560Z,20.60
2018-01-14T04:18:42.006Z,22.67
2018-01-14T04:21:09.431Z,20.05
2018-01-14T04:23:36.866Z,22.03
2018-01-14T04:26:04.283Z,20.20
2018-01-14T04:28:31.742Z,22.23
2018-01-14T04:30:59.140Z,22.10
2018-01-14T04:33:26.582Z,21.97
2018-01-14T04:35:54.023Z,21.87
2018-01-14T04:38:21.886Z,21.87
2018-01-14T04:40:49.342Z,22.13
2018-01-14T04:43:16.795Z,22.10
2018-01-14T04:45:44.225Z,23.13
2018-01-14T04:48:11.648Z,22.08
2018-01-14T04:50:39.136Z,22.20
2018-01-14T04:53:06.555Z,21.60
2018-01-14T04:55:34.015Z,23.20
2018-01-14T04:58:01.441Z,23.63
2018-01-14T05:00:28.872Z,22.60
2018-01-14T05:02:56.320Z,21.43
2018-01-14T05:05:23.754Z,23.00
2018-01-14T05:07:51.183Z,23.57
2018-01-14T05:10:18.604Z,20.43
2018-01-14T05:12:46.034Z,23.60
2018-01-14T05:15:13.530Z,20.90
2018-01-14T05:17:40.957Z,20.83
2018-01-14T05:20:08.413Z,21.30
2018-01-14T05:22:35.877Z,23.67
2018-01-14T05:25:03.311Z,21.10
2018-01-14T05:27:30.763Z,23.37
2018-01-14T05:29:58.191Z,21.60
2018-01-14T05:32:25.630Z,23.40
2018-01-14T05:34:53.070Z,21.63
2018-01-14T05:37:20.491Z,20.77
2018-01-14T05:39:47.941Z,21.03
2018-01-14T05:42:15.396Z,21.80
2018-01-14T05:44:42.813Z,22.37
2018-01-14T05:47:10.250Z,20.13
2018-01-14T05:49:38.028Z,22.73
2018-01-14T05:52:05.472Z,20.47
2018-01-14T05:54:32.885Z,20.93
2018-01-14T05:57:00.307Z,20.10
2018-01-14T05:59:27.750Z,20.70
2018-01-14T06:01:55.179Z,21.00
2018-01-14T06:04:22.607Z,20.10
2018-01-14T06:06:50.028Z,21.43
2018-01-14T06:09:17.457Z,20.47
2018-01-14T06:11:44.961Z,20.30
2018-01-14T06:14:12.417Z,21.03
2018-01-14T06:16:39.814Z,18.90
2018-01-14T06:19:07.251Z,18.85
2018-01-14T06:21:34.698Z,19.33
2018-01-14T06:24:02.142Z,19.65
2018-01-14T06:26:29.613Z,19.50
2018-01-14T06:28:57.036Z,18.17
2018-01-14T06:31:24.466Z,18.37
2018-01-14T06:33:52.329Z,19.25
2018-01-14T06:36:19.869Z,21.00
2018-01-14T06:38:47.282Z,19.93
2018-01-14T06:41:14.728Z,18.20
2018-01-14T06:43:42.137Z,20.27
2018-01-14T06:46:09.566Z,18.37
2018-01-14T06:48:37.009Z,18.33
2018-01-14T06:51:04.422Z,19.73
2018-01-14T06:53:31.870Z,18.33
2018-01-14T06:55:59.279Z,19.27
2018-01-14T06:58:26.745Z,19.13
2018-01-14T07:00:54.163Z,18.37
2018-01-14T07:03:21.603Z,19.43
2018-01-14T07:05:49.065Z,18.20
2018-01-14T07:08:16.487Z,18.23
2018-01-14T07:10:43.951Z,17.50
2018-01-14T07:13:11.397Z,19.73
2018-01-14T07:15:38.792Z,18.30
2018-01-14T07:18:06.223Z,17.97
2018-01-14T07:20:33.644Z,18.47
2018-01-14T07:23:01.072Z,19.23
2018-01-14T07:25:28.511Z,17.98
2018-01-14T07:27:55.947Z,18.10
2018-01-14T07:30:23.408Z,18.90
2018-01-14T07:32:50.817Z,18.13
2018-01-14T07:35:18.278Z,18.90
2018-01-14T07:37:45.693Z,19.30
2018-01-14T07:40:13.149Z,17.67
2018-01-14T07:42:40.559Z,17.00
2018-01-14T07:45:08.017Z,17.90
2018-01-14T07:47:35.416Z,17.53
2018-01-14T07:50:02.849Z,18.10
2018-01-14T07:52:30.294Z,19.90
2018-01-14T07:54:57.747Z,17.50
2018-01-14T07:57:25.173Z,16.67
2018-01-14T07:59:52.644Z,16.97
2018-01-14T08:02:20.083Z,18.00
2018-01-14T08:04:47.564Z,16.17
2018-01-14T08:07:15.013Z,17.20
2018-01-14T08:09:42.465Z,15.30
2018-01-14T08:12:10.568Z,16.37
2018-01-14T08:14:38.046Z,16.17
2018-01-14T08:17:05.471Z,16.30
2018-01-14T08:19:32.933Z,16.40
2018-01-14T08:22:00.373Z,16.93
2018-01-14T08:24:27.813Z,15.97
2018-01-14T08:26:55.452Z,16.67
2018-01-14T08:29:22.984Z,16.50
2018-01-14T08:31:50.913Z,16.00
2018-01-14T08:34:18.368Z,16.23
2018-01-14T08:36:45.823Z,16.12
2018-01-14T08:39:13.230Z,14.80
2018-01-14T08:41:40.689Z,16.17
2018-01-14T08:44:08.117Z,14.57
2018-01-14T08:46:35.612Z,16.20
2018-01-14T08:49:03.075Z,13.27
2018-01-14T08:51:30.538Z,14.67
2018-01-14T08:53:57.980Z,14.80
2018-01-14T08:56:25.427Z,14.47
2018-01-14T08:58:53.131Z,15.10
2018-01-14T09:01:26.235Z,14.30
2018-01-14T09:04:03.736Z,13.87
2018-01-14T09:06:31.202Z,15.10
2018-01-14T09:08:58.667Z,14.83
2018-01-14T09:11:26.093Z,13.70
2018-01-14T09:13:53.558Z,15.07
2018-01-14T09:16:20.961Z,13.30
2018-01-14T09:18:48.459Z,14.10
2018-01-14T09:21:15.831Z,14.77
2018-01-14T09:23:43.296Z,13.03
2018-01-14T09:26:10.738Z,13.67
2018-01-14T09:28:38.175Z,14.50
2018-01-14T09:31:05.599Z,12.70
2018-01-14T09:33:33.034Z,13.10
2018-01-14T09:36:01.646Z,14.50
2018-01-14T09:38:29.915Z,13.10
2018-01-14T09:40:57.399Z,13.90
2018-01-14T09:43:24.853Z,14.40
2018-01-14T09:45:52.302Z,13.60
2018-01-14T09:48:19.761Z,12.40
2018-01-14T09:50:47.192Z,13.80
2018-01-14T09:53:14.626Z,14.00
2018-01-14T09:55:42.134Z,14.23
2018-01-14T09:58:09.560Z,12.43
2018-01-14T10:00:36.999Z,13.30
2018-01-14T10:03:04.454Z,13.07
2018-01-14T10:05:31.984Z,12.40
2018-01-14T10:07:59.411Z,13.27
2018-01-14T10:10:26.857Z,13.03
2018-01-14T10:12:54.285Z,12.77
2018-01-14T10:15:21.723Z,13.02
2018-01-14T10:17:49.195Z,11.80
2018-01-14T10:20:16.703Z,12.73
2018-01-14T10:22:44.150Z,12.30
2018-01-14T10:25:11.558Z,13.30
2018-01-14T10:27:39.024Z,12.07
2018-01-14T10:30:06.452Z,12.20
2018-01-14T10:32:34.138Z,13.10
2018-01-14T10:35:01.638Z,12.50
2018-01-14T10:37:29.148Z,12.90
2018-01-14T10:39:56.556Z,10.77
2018-01-14T10:42:23.968Z,11.10
2018-01-14T10:44:51.435Z,10.43
2018-01-14T10:47:18.867Z,10.57
2018-01-14T10:49:46.310Z,11.70
2018-01-14T10:52:13.757Z,11.20
2018-01-14T10:54:41.210Z,10.87
2018-01-14T10:57:12.892Z,11.07
2018-01-14T10:59:40.343Z,10.83
2018-01-14T11:02:08.576Z,10.37
2018-01-14T11:04:36.040Z,11.40
2018-01-14T11:07:03.466Z,11.40
2018-01-14T11:09:30.911Z,11.30
2018-01-14T11:11:58.380Z,11.57
2018-01-14T11:14:25.820Z,11.60
2018-01-14T11:16:53.392Z,12.03
2018-01-14T11:19:20.809Z,11.93
2018-01-14T11:21:49.268Z,12.02
2018-01-14T11:24:16.747Z,11.40
2018-01-14T11:26:44.515Z,13.00
2018-01-14T11:29:23.708Z,11.13
2018-01-14T11:31:51.123Z,11.57
2018-01-14T11:34:18.575Z,12.70
2018-01-14T11:36:46.008Z,10.63
2018-01-14T11:39:13.700Z,11.37
2018-01-14T11:41:41.143Z,12.20
2018-01-14T11:44:08.576Z,12.50
2018-01-14T11:46:36.022Z,12.40
2018-01-14T11:49:03.512Z,11.83
2018-01-14T11:51:30.944Z,13.40
2018-01-14T11:53:58.488Z,12.53
2018-01-14T11:56:26.027Z,11.47
2018-01-14T11:58:54.582Z,11.75
2018-01-14T12:01:21.998Z,12.07
2018-01-14T12:03:49.433Z,12.10
2018-01-14T12:06:17.401Z,11.50
2018-01-14T12:08:44.858Z,10.10
2018-01-14T12:11:12.289Z,9.23
2018-01-14T12:13:39.828Z,10.03
2018-01-14T12:16:07.454Z,10.43
2018-01-14T12:18:34.973Z,10.70
2018-01-14T12:21:02.519Z,10.70
2018-01-14T12:23:29.929Z,10.37
2018-01-14T12:25:57.588Z,10.97
2018-01-14T12:28:25.027Z,11.90
2018-01-14T12:30:52.571Z,10.80
2018-01-14T12:33:19.994Z,11.37
2018-01-14T12:35:47.459Z,10.00
2018-01-14T12:38:15.291Z,11.27
2018-01-14T12:40:42.752Z,10.90
2018-01-14T12:43:10.208Z,11.20
2018-01-14T12:45:37.670Z,11.20
2018-01-14T12:48:05.122Z,12.17
2018-01-14T12:50:32.588Z,11.27
2018-01-14T12:53:00.051Z,11.40
2018-01-14T12:55:27.510Z,11.70
2018-01-14T12:57:54.956Z,11.65
2018-01-14T13:00:22.405Z,11.40
2018-01-14T13:02:49.840Z,11.90
2018-01-14T13:05:17.421Z,11.80
2018-01-14T13:07:44.887Z,12.10
2018-01-14T13:10:12.305Z,12.60
2018-01-14T13:12:39.885Z,11.50
2018-01-14T13:15:07.337Z,10.90
2018-01-14T13:17:34.868Z,10.80
2018-01-14T13:20:02.331Z,11.70
2018-01-14T13:22:29.742Z,10.50
2018-01-14T13:24:57.194Z,10.60
2018-01-14T13:27:24.627Z,11.60
2018-01-14T13:29:52.052Z,9.60
2018-01-14T13:32:19.477Z,11.30
2018-01-14T13:34:46.973Z,9.47
2018-01-14T13:37:14.382Z,10.67
2018-01-14T13:39:41.833Z,10.20
2018-01-14T13:42:09.272Z,9.00
2018-01-14T13:44:36.740Z,9.67
2018-01-14T13:47:04.202Z,11.40
2018-01-14T13:49:31.650Z,8.80
2018-01-14T13:51:59.077Z,9.87
2018-01-14T13:54:26.495Z,8.60
2018-01-14T13:56:53.957Z,11.07
2018-01-14T13:59:21.422Z,10.55
2018-01-14T14:01:48.886Z,9.63
2018-01-14T14:04:16.554Z,10.33
2018-01-14T14:06:44.043Z,9.30
2018-01-14T14:09:11.446Z,11.05
2018-01-14T14:11:38.905Z,10.43
2018-01-14T14:14:06.325Z,10.90
2018-01-14T14:16:33.782Z,9.70
2018-01-14T14:19:01.183Z,10.17
2018-01-14T14:21:28.651Z,9.73
2018-01-14T14:23:56.081Z,9.77
2018-01-14T14:26:23.497Z,9.90
2018-01-14T14:28:50.954Z,10.30
2018-01-14T14:31:18.900Z,9.83
2018-01-14T14:33:46.362Z,10.07
2018-01-14T14:36:13.806Z,10.13
2018-01-14T14:38:41.234Z,10.10
2018-01-14T14:41:08.650Z,10.38
2018-01-14T14:43:36.269Z,11.73
2018-01-14T14:46:03.928Z,10.80
2018-01-14T14:48:31.514Z,10.47
2018-01-14T14:50:58.993Z,10.20
2018-01-14T14:53:26.655Z,10.00
2018-01-14T14:55:54.175Z,9.60
2018-01-14T14:58:21.614Z,10.30
2018-01-14T15:00:49.190Z,11.13
2018-01-14T15:03:16.580Z,9.20
2018-01-14T15:05:44.024Z,10.50
2018-01-14T15:08:11.477Z,10.20
2018-01-14T15:10:38.940Z,9.20
2018-01-14T15:13:06.399Z,9.80
2018-01-14T15:15:33.828Z,9.52
2018-01-14T15:18:01.256Z,9.70
2018-01-14T15:20:28.795Z,10.20
2018-01-14T15:22:56.212Z,10.80
2018-01-14T15:25:23.780Z,10.17
2018-01-14T15:27:51.197Z,10.80
2018-01-14T15:30:18.649Z,9.67
2018-01-14T15:32:46.093Z,10.23
2018-01-14T15:35:13.532Z,12.40
2018-01-14T15:37:41.001Z,12.17
2018-01-14T15:40:08.458Z,12.37
2018-01-14T15:42:36.048Z,11.88
2018-01-14T15:45:03.489Z,10.63
2018-01-14T15:47:30.931Z,10.50
2018-01-14T15:49:58.377Z,13.70
2018-01-14T15:52:25.837Z,11.83
2018-01-14T15:54:53.367Z,12.57
2018-01-14T15:57:20.767Z,12.20
2018-01-14T15:59:50.976Z,13.33
2018-01-14T16:02:19.604Z,13.87
2018-01-14T16:04:47.332Z,12.80
2018-01-14T16:07:14.775Z,12.50
2018-01-14T16:09:42.521Z,12.00
2018-01-14T16:12:09.986Z,12.43
2018-01-14T16:14:37.424Z,13.27
2018-01-14T16:17:04.903Z,13.60
2018-01-14T16:19:32.335Z,12.77
2018-01-14T16:21:59.806Z,13.00
2018-01-14T16:24:27.223Z,13.73
2018-01-14T16:26:54.661Z,12.27
2018-01-14T16:29:22.126Z,11.77
2018-01-14T16:31:49.601Z,13.13
2018-01-14T16:34:17.015Z,12.50
2018-01-14T16:36:44.509Z,12.80
2018-01-14T16:39:11.995Z,12.20
2018-01-14T16:41:39.466Z,11.90
2018-01-14T16:44:06.905Z,12.50
2018-01-14T16:46:34.374Z,12.63
2018-01-14T16:49:01.810Z,11.80
2018-01-14T16:51:29.249Z,13.23
2018-01-14T16:53:56.692Z,11.67
2018-01-14T16:56:24.354Z,11.33
2018-01-14T16:58:51.807Z,12.80
2018-01-14T17:01:19.245Z,12.10
2018-01-14T17:03:46.764Z,13.90
2018-01-14T17:06:14.224Z,11.23
2018-01-14T17:08:41.689Z,12.90
2018-01-14T17:11:09.131Z,13.30
2018-01-14T17:13:36.569Z,13.47
2018-01-14T17:16:04.034Z,12.50
2018-01-14T17:18:31.513Z,12.85
2018-01-14T17:20:59.016Z,12.67
2018-01-14T17:23:26.474Z,13.15
2018-01-14T17:25:53.907Z,14.30
2018-01-14T17:28:21.385Z,13.73
2018-01-14T17:30:48.956Z,12.50
2018-01-14T17:33:16.384Z,13.03
2018-01-14T17:35:43.859Z,14.43
2018-01-14T17:38:11.510Z,13.50
2018-01-14T17:40:38.953Z,13.20
2018-01-14T17:43:06.459Z,12.90
2018-01-14T17:45:33.887Z,13.30
2018-01-14T17:48:01.352Z,13.70
2018-01-14T17:50:28.819Z,13.45
2018-01-14T17:52:56.258Z,13.57
2018-01-14T17:55:23.706Z,14.73
2018-01-14T17:57:51.156Z,14.80
2018-01-14T18:00:18.650Z,13.47
2018-01-14T18:02:46.133Z,13.97
2018-01-14T18:05:13.597Z,13.43
2018-01-14T18:07:41.028Z,15.97
2018-01-14T18:10:08.470Z,13.57
2018-01-14T18:12:35.909Z,13.10
2018-01-14T18:15:03.397Z,13.70
2018-01-14T18:17:30.822Z,12.60
2018-01-14T18:19:58.307Z,13.13
2018-01-14T18:22:25.720Z,13.87
2018-01-14T18:24:53.185Z,13.90
2018-01-14T18:27:20.641Z,13.63
2018-01-14T18:29:48.715Z,14.13
2018-01-14T18:32:16.101Z,14.47
2018-01-14T18:34:43.993Z,14.60
2018-01-14T18:37:12.948Z,13.63
2018-01-14T18:39:40.353Z,14.43
2018-01-14T18:42:07.814Z,15.17
2018-01-14T18:44:35.293Z,14.53
2018-01-14T18:47:02.740Z,14.80
2018-01-14T18:49:30.219Z,15.13
2018-01-14T18:51:57.680Z,13.83
2018-01-14T18:54:25.104Z,15.20
2018-01-14T18:56:52.551Z,15.07
2018-01-14T18:59:19.997Z,14.70
2018-01-14T19:01:47.460Z,15.00
2018-01-14T19:04:14.938Z,14.57
2018-01-14T19:06:42.382Z,15.00
2018-01-14T19:09:09.820Z,14.97
2018-01-14T19:11:37.251Z,14.97
2018-01-14T19:14:04.723Z,14.77
2018-01-14T19:16:32.157Z,14.83
2018-01-14T19:18:59.626Z,14.60
2018-01-14T19:21:27.415Z,13.82
2018-01-14T19:23:54.879Z,14.77
2018-01-14T19:26:22.328Z,16.03
2018-01-14T19:28:49.794Z,16.83
2018-01-14T19:31:17.491Z,14.80
2018-01-14T19:33:44.997Z,16.20
2018-01-14T19:36:12.426Z,15.50
2018-01-14T19:38:39.929Z,14.73
2018-01-14T19:41:07.416Z,14.97
2018-01-14T19:43:34.846Z,15.63
2018-01-14T19:46:02.395Z,14.37
2018-01-14T19:48:29.834Z,13.77
2018-01-14T19:50:57.264Z,15.87
2018-01-14T19:53:24.727Z,15.53
2018-01-14T19:55:52.216Z,14.90
2018-01-14T19:58:19.636Z,15.80
2018-01-14T20:00:47.132Z,15.00
2018-01-14T20:03:14.549Z,16.60
2018-01-14T20:05:41.993Z,14.60
2018-01-14T20:08:09.436Z,16.63
2018-01-14T20:10:36.922Z,14.90
2018-01-14T20:13:04.351Z,14.23
2018-01-14T20:15:32.091Z,14.50
2018-01-14T20:17:59.573Z,14.30
2018-01-14T20:20:27.029Z,13.20
2018-01-14T20:22:54.564Z,13.23
2018-01-14T20:25:22.141Z,15.83
2018-01-14T20:27:49.728Z,14.90
2018-01-14T20:30:17.216Z,16.17
2018-01-14T20:32:44.686Z,14.30
2018-01-14T20:35:12.234Z,13.67
2018-01-14T20:37:39.649Z,13.93
2018-01-14T20:40:07.104Z,14.93
2018-01-14T20:42:34.722Z,15.13
2018-01-14T20:45:02.415Z,14.40
2018-01-14T20:47:29.894Z,15.73
2018-01-14T20:49:57.340Z,14.90
2018-01-14T20:52:24.836Z,15.60
2018-01-14T20:54:52.332Z,15.03
2018-01-14T20:57:19.916Z,14.20
2018-01-14T20:59:47.370Z,13.80
2018-01-14T21:02:14.809Z,14.90
2018-01-14T21:04:42.289Z,12.40
2018-01-14T21:07:09.766Z,13.30
2018-01-14T21:09:37.223Z,13.40
2018-01-14T21:12:04.681Z,13.60
2018-01-14T21:14:32.166Z,13.43
2018-01-14T21:16:59.648Z,15.20
2018-01-14T21:19:27.155Z,13.77
2018-01-14T21:21:54.567Z,12.77
2018-01-14T21:24:22.056Z,14.67
2018-01-14T21:26:49.462Z,12.90
2018-01-14T21:29:16.895Z,13.60
2018-01-14T21:31:44.350Z,12.77
2018-01-14T21:34:11.891Z,13.60
2018-01-14T21:36:39.348Z,15.03
2018-01-14T21:39:06.826Z,15.27
2018-01-14T21:41:34.347Z,14.33
2018-01-14T21:44:01.773Z,13.37
2018-01-14T21:46:29.198Z,14.00
2018-01-14T21:48:56.619Z,14.00
2018-01-14T21:51:24.133Z,14.57
2018-01-14T21:53:51.511Z,14.43
2018-01-14T21:56:18.991Z,12.80
2018-01-14T21:58:46.430Z,14.20
2018-01-14T22:01:13.851Z,13.97
2018-01-14T22:03:41.359Z,14.20
2018-01-14T22:06:08.807Z,13.82
2018-01-14T22:08:36.224Z,13.37
2018-01-14T22:11:03.629Z,14.20
2018-01-14T22:13:31.112Z,14.10
2018-01-14T22:15:58.530Z,13.43
2018-01-14T22:18:25.988Z,13.90
2018-01-14T22:20:53.600Z,14.10
2018-01-14T22:23:21.031Z,15.43
2018-01-14T22:25:48.478Z,13.50
2018-01-14T22:28:15.911Z,15.52
2018-01-14T22:30:43.394Z,15.47
2018-01-14T22:33:10.833Z,14.93
2018-01-14T22:35:38.313Z,14.57
2018-01-14T22:38:05.745Z,14.20
2018-01-14T22:40:33.177Z,14.63
2018-01-14T22:43:00.606Z,13.87
2018-01-14T22:45:28.078Z,13.93
2018-01-14T22:47:55.532Z,15.90
2018-01-14T22:50:23.034Z,15.23
2018-01-14T22:52:50.436Z,15.17
2018-01-14T22:55:17.873Z,14.63
2018-01-14T22:57:45.337Z,15.20
2018-01-14T23:00:13.604Z,14.70
2018-01-14T23:02:41.080Z,15.37
2018-01-14T23:05:08.479Z,14.70
2018-01-14T23:07:35.909Z,14.00
2018-01-14T23:10:03.337Z,14.40
2018-01-14T23:12:30.787Z,14.70
2018-01-14T23:15:03.699Z,14.33
2018-01-14T23:17:31.157Z,12.60
2018-01-14T23:19:58.613Z,13.97
2018-01-14T23:22:26.138Z,14.73
2018-01-14T23:24:53.613Z,13.43
2018-01-14T23:27:21.047Z,13.65
2018-01-14T23:29:48.495Z,14.10
2018-01-14T23:32:15.941Z,13.30
2018-01-14T23:34:43.393Z,15.70
2018-01-14T23:37:10.942Z,14.50
2018-01-14T23:39:38.396Z,14.50
2018-01-14T23:42:05.839Z,15.03
2018-01-14T23:44:33.283Z,14.63
2018-01-14T23:49:28.323Z,15.63
2018-01-14T23:51:54.915Z,15.93
2018-01-14T23:54:21.557Z,14.87
2018-01-14T23:56:48.169Z,14.20
2018-01-14T23:59:14.780Z,14.33
